createdAt,value
2019-02-23T00:00:30.354Z,99.99
2019-02-23T00:01:30.338Z,99.99
2019-02-23T00:02:30.335Z,99.99
2019-02-23T00:03:30.325Z,99.99
2019-02-23T00:04:33.041Z,99.99
2019-02-23T00:05:30.329Z,99.99
2019-02-23T00:06:30.354Z,99.99
2019-02-23T00:07:30.286Z,99.99
2019-02-23T00:08:30.276Z,99.99
2019-02-23T00:09:30.267Z,99.99
2019-02-23T00:10:30.256Z,99.99
2019-02-23T00:11:30.250Z,99.99
2019-02-23T00:12:30.236Z,99.99
2019-02-23T00:13:30.221Z,99.99
2019-02-23T00:14:30.210Z,99.99
2019-02-23T00:15:30.279Z,99.99
2019-02-23T00:16:30.206Z,99.99
2019-02-23T00:17:30.194Z,99.99
2019-02-23T00:18:30.177Z,99.99
2019-02-23T00:19:30.160Z,99.99
2019-02-23T00:20:30.155Z,99.99
2019-02-23T00:21:30.146Z,99.99
2019-02-23T00:22:30.135Z,99.99
2019-02-23T00:23:30.145Z,99.99
2019-02-23T00:24:30.126Z,99.99
2019-02-23T00:25:30.116Z,99.99
2019-02-23T00:26:30.091Z,99.99
2019-02-23T00:27:30.087Z,99.99
2019-02-23T00:28:30.079Z,99.99
2019-02-23T00:29:30.069Z,99.99
2019-02-23T00:30:30.052Z,99.99
2019-02-23T00:31:30.051Z,99.99
2019-02-23T00:32:30.035Z,99.99
2019-02-23T00:33:30.033Z,99.99
2019-02-23T00:34:30.022Z,99.99
2019-02-23T00:35:30.004Z,99.99
2019-02-23T00:36:29.993Z,99.99
2019-02-23T00:37:29.985Z,99.99
2019-02-23T00:38:29.976Z,99.99
2019-02-23T00:39:29.968Z,99.99
2019-02-23T00:40:29.957Z,99.99
2019-02-23T00:41:29.949Z,99.99
2019-02-23T00:42:29.939Z,99.99
2019-02-23T00:43:29.927Z,99.99
2019-02-23T00:44:29.918Z,99.99
2019-02-23T00:45:30.547Z,99.99
2019-02-23T00:46:29.899Z,99.99
2019-02-23T00:47:29.885Z,99.99
2019-02-23T00:48:29.874Z,99.99
2019-02-23T00:49:36.361Z,99.99
2019-02-23T00:50:29.864Z,99.99
2019-02-23T00:51:29.847Z,99.99
2019-02-23T00:52:29.842Z,99.99
2019-02-23T00:53:29.824Z,99.99
2019-02-23T00:54:29.816Z,99.99
2019-02-23T00:55:29.888Z,99.99
2019-02-23T00:56:29.798Z,99.99
2019-02-23T00:57:29.785Z,99.99
2019-02-23T00:58:29.776Z,99.99
2019-02-23T00:59:29.763Z,99.99
2019-02-23T01:00:29.770Z,99.99
2019-02-23T01:01:29.763Z,99.99
2019-02-23T01:02:29.736Z,99.99
2019-02-23T01:03:29.727Z,99.99
2019-02-23T01:04:29.716Z,99.99
2019-02-23T01:05:29.694Z,99.99
2019-02-23T01:06:29.693Z,99.99
2019-02-23T01:07:29.689Z,99.99
2019-02-23T01:08:29.673Z,99.99
2019-02-23T01:09:29.662Z,99.99
2019-02-23T01:10:29.651Z,99.99
2019-02-23T01:11:29.641Z,99.99
2019-02-23T01:12:29.630Z,99.99
2019-02-23T01:13:29.643Z,99.99
2019-02-23T01:14:29.616Z,99.99
2019-02-23T01:15:29.606Z,99.99
2019-02-23T01:16:29.595Z,99.99
2019-02-23T01:17:29.578Z,99.99
2019-02-23T01:18:29.574Z,99.99
2019-02-23T01:19:29.554Z,99.99
2019-02-23T01:20:29.548Z,99.99
2019-02-23T01:21:29.551Z,99.99
2019-02-23T01:22:29.533Z,99.99
2019-02-23T01:23:29.523Z,99.99
2019-02-23T01:24:29.522Z,99.99
2019-02-23T01:25:29.499Z,99.99
2019-02-23T01:26:29.489Z,99.99
2019-02-23T01:27:29.495Z,99.99
2019-02-23T01:28:29.475Z,99.99
2019-02-23T01:29:29.456Z,99.99
2019-02-23T01:30:29.447Z,99.99
2019-02-23T01:31:29.431Z,99.99
2019-02-23T01:32:29.426Z,99.99
2019-02-23T01:33:29.419Z,99.99
2019-02-23T01:34:29.415Z,99.99
2019-02-23T01:35:29.399Z,99.99
2019-02-23T01:36:29.389Z,99.99
2019-02-23T01:37:29.380Z,99.99
2019-02-23T01:38:29.373Z,99.99
2019-02-23T01:39:29.358Z,99.99
2019-02-23T01:40:29.344Z,99.99
2019-02-23T01:41:29.337Z,99.99
2019-02-23T01:42:29.332Z,99.99
2019-02-23T01:43:29.314Z,99.99
2019-02-23T01:44:29.303Z,99.99
2019-02-23T01:45:29.302Z,99.99
2019-02-23T01:46:29.288Z,99.99
2019-02-23T01:47:29.280Z,99.99
2019-02-23T01:48:29.268Z,99.99
2019-02-23T01:49:29.252Z,99.99
2019-02-23T01:50:29.243Z,99.99
2019-02-23T01:51:29.235Z,99.99
2019-02-23T01:52:29.227Z,99.99
2019-02-23T01:53:29.210Z,99.99
2019-02-23T01:54:29.207Z,99.99
2019-02-23T01:55:29.193Z,99.99
2019-02-23T01:56:29.181Z,99.99
2019-02-23T01:57:29.173Z,99.99
2019-02-23T01:58:29.170Z,99.99
2019-02-23T01:59:29.150Z,99.99
2019-02-23T02:00:29.141Z,99.99
2019-02-23T02:01:29.130Z,99.99
2019-02-23T02:02:29.125Z,99.99
2019-02-23T02:03:29.118Z,99.99
2019-02-23T02:04:29.115Z,99.99
2019-02-23T02:05:29.091Z,99.99
2019-02-23T02:06:29.081Z,99.99
2019-02-23T02:07:29.072Z,99.99
2019-02-23T02:08:29.063Z,99.99
2019-02-23T02:09:29.053Z,99.99
2019-02-23T02:10:29.042Z,99.99
2019-02-23T02:11:29.034Z,99.99
2019-02-23T02:12:29.024Z,99.99
2019-02-23T02:13:29.008Z,99.99
2019-02-23T02:14:29.000Z,99.99
2019-02-23T02:15:28.993Z,99.99
2019-02-23T02:16:28.983Z,99.99
2019-02-23T02:17:28.969Z,99.99
2019-02-23T02:18:28.962Z,99.99
2019-02-23T02:19:28.950Z,99.99
2019-02-23T02:20:28.939Z,99.99
2019-02-23T02:21:28.938Z,99.99
2019-02-23T02:22:28.920Z,99.99
2019-02-23T02:23:28.912Z,99.99
2019-02-23T02:24:28.903Z,99.99
2019-02-23T02:25:28.889Z,99.99
2019-02-23T02:26:28.879Z,99.99
2019-02-23T02:27:28.870Z,99.99
2019-02-23T02:28:28.861Z,99.99
2019-02-23T02:29:28.849Z,99.99
2019-02-23T02:30:28.838Z,99.99
2019-02-23T02:31:28.833Z,99.99
2019-02-23T02:32:28.820Z,99.99
2019-02-23T02:33:28.813Z,99.99
2019-02-23T02:34:28.800Z,99.99
2019-02-23T02:35:28.790Z,99.99
2019-02-23T02:36:28.781Z,99.99
2019-02-23T02:37:28.765Z,99.99
2019-02-23T02:38:28.758Z,99.99
2019-02-23T02:39:28.757Z,99.99
2019-02-23T02:40:28.756Z,99.99
2019-02-23T02:41:28.726Z,99.99
2019-02-23T02:42:28.720Z,99.99
2019-02-23T02:43:28.722Z,99.99
2019-02-23T02:44:28.701Z,99.99
2019-02-23T02:45:28.689Z,99.99
2019-02-23T02:46:28.678Z,99.99
2019-02-23T02:47:28.670Z,99.99
2019-02-23T02:48:28.662Z,99.99
2019-02-23T02:49:28.650Z,99.99
2019-02-23T02:50:28.638Z,99.99
2019-02-23T02:51:28.635Z,99.99
2019-02-23T02:52:28.621Z,99.99
2019-02-23T02:53:28.610Z,99.99
2019-02-23T02:54:28.600Z,99.99
2019-02-23T02:55:28.594Z,99.99
2019-02-23T02:56:28.594Z,99.99
2019-02-23T02:57:28.566Z,99.99
2019-02-23T02:58:28.557Z,99.99
2019-02-23T02:59:28.549Z,99.99
2019-02-23T03:00:28.536Z,99.99
2019-02-23T03:01:28.539Z,99.99
2019-02-23T03:02:28.517Z,99.99
2019-02-23T03:03:28.506Z,99.99
2019-02-23T03:04:28.494Z,99.99
2019-02-23T03:05:28.489Z,99.99
2019-02-23T03:06:28.480Z,99.99
2019-02-23T03:07:28.470Z,99.99
2019-02-23T03:08:28.457Z,99.99
2019-02-23T03:09:28.446Z,99.99
2019-02-23T03:10:28.434Z,99.99
2019-02-23T03:11:28.432Z,99.99
2019-02-23T03:12:28.413Z,99.99
2019-02-23T03:13:28.408Z,99.99
2019-02-23T03:14:28.405Z,99.99
2019-02-23T03:15:28.383Z,99.99
2019-02-23T03:16:28.382Z,99.99
2019-02-23T03:17:28.366Z,99.99
2019-02-23T03:18:28.367Z,99.99
2019-02-23T03:19:28.347Z,99.99
2019-02-23T03:20:36.287Z,99.99
2019-02-23T03:21:28.322Z,99.99
2019-02-23T03:22:28.314Z,99.99
2019-02-23T03:23:28.302Z,99.99
2019-02-23T03:24:28.291Z,99.99
2019-02-23T03:25:28.285Z,99.99
2019-02-23T03:26:28.272Z,99.99
2019-02-23T03:27:28.263Z,99.99
2019-02-23T03:28:28.256Z,99.99
2019-02-23T03:29:28.244Z,99.99
2019-02-23T03:30:28.237Z,99.99
2019-02-23T03:31:28.223Z,99.99
2019-02-23T03:32:28.224Z,99.99
2019-02-23T03:33:28.239Z,99.99
2019-02-23T03:34:28.190Z,99.99
2019-02-23T03:35:28.179Z,99.99
2019-02-23T03:36:28.307Z,99.99
2019-02-23T03:37:28.161Z,99.99
2019-02-23T03:38:28.150Z,99.99
2019-02-23T03:39:28.142Z,99.99
2019-02-23T03:40:28.144Z,99.99
2019-02-23T03:41:28.116Z,99.99
2019-02-23T03:42:28.110Z,99.99
2019-02-23T03:43:28.102Z,99.99
2019-02-23T03:44:28.086Z,99.99
2019-02-23T03:45:28.079Z,99.99
2019-02-23T03:46:28.072Z,99.99
2019-02-23T03:47:28.059Z,99.99
2019-02-23T03:48:28.152Z,99.99
2019-02-23T03:49:28.037Z,99.99
2019-02-23T03:50:28.029Z,99.99
2019-02-23T03:51:28.015Z,99.99
2019-02-23T03:52:28.015Z,99.99
2019-02-23T03:53:28.000Z,99.99
2019-02-23T03:54:27.989Z,99.99
2019-02-23T03:55:27.976Z,99.99
2019-02-23T03:56:27.965Z,99.99
2019-02-23T03:57:27.955Z,99.99
2019-02-23T03:58:27.948Z,99.99
2019-02-23T03:59:27.941Z,99.99
2019-02-23T04:00:27.933Z,99.99
2019-02-23T04:01:27.915Z,99.99
2019-02-23T04:02:27.907Z,99.99
2019-02-23T04:03:27.894Z,99.99
2019-02-23T04:04:27.885Z,99.99
2019-02-23T04:05:27.878Z,99.99
2019-02-23T04:06:27.874Z,99.99
2019-02-23T04:07:27.856Z,99.99
2019-02-23T04:08:27.853Z,99.99
2019-02-23T04:09:27.843Z,99.99
2019-02-23T04:10:27.823Z,99.99
2019-02-23T04:11:27.819Z,99.99
2019-02-23T04:12:27.818Z,99.99
2019-02-23T04:13:27.796Z,99.99
2019-02-23T04:14:27.787Z,99.99
2019-02-23T04:15:27.773Z,99.99
2019-02-23T04:16:27.768Z,99.99
2019-02-23T04:17:27.759Z,99.99
2019-02-23T04:18:27.754Z,99.99
2019-02-23T04:19:27.742Z,99.99
2019-02-23T04:20:27.730Z,99.99
2019-02-23T04:21:27.717Z,99.99
2019-02-23T04:22:27.707Z,99.99
2019-02-23T04:23:27.699Z,99.99
2019-02-23T04:24:27.692Z,99.99
2019-02-23T04:25:27.680Z,99.99
2019-02-23T04:26:27.668Z,99.99
2019-02-23T04:27:27.660Z,99.99
2019-02-23T04:28:27.649Z,99.99
2019-02-23T04:29:27.656Z,99.99
2019-02-23T04:30:27.632Z,99.99
2019-02-23T04:31:27.624Z,99.99
2019-02-23T04:32:27.621Z,99.99
2019-02-23T04:33:27.599Z,99.99
2019-02-23T04:34:27.595Z,99.99
2019-02-23T04:35:27.634Z,99.99
2019-02-23T04:36:27.574Z,99.99
2019-02-23T04:37:27.623Z,99.99
2019-02-23T04:38:27.553Z,99.99
2019-02-23T04:39:27.545Z,99.99
2019-02-23T04:40:27.528Z,99.99
2019-02-23T04:41:27.525Z,99.99
2019-02-23T04:42:27.515Z,99.99
2019-02-23T04:43:27.510Z,99.99
2019-02-23T04:44:27.494Z,99.99
2019-02-23T04:45:27.486Z,99.99
2019-02-23T04:46:27.480Z,99.99
2019-02-23T04:47:27.468Z,99.99
2019-02-23T04:48:27.453Z,99.99
2019-02-23T04:49:27.451Z,99.99
2019-02-23T04:50:27.437Z,99.99
2019-02-23T04:51:27.427Z,99.99
2019-02-23T04:52:27.425Z,99.99
2019-02-23T04:53:27.448Z,99.99
2019-02-23T04:54:27.396Z,99.99
2019-02-23T04:55:27.393Z,99.99
2019-02-23T04:56:27.379Z,99.99
2019-02-23T04:57:27.365Z,99.99
2019-02-23T04:58:27.362Z,99.99
2019-02-23T04:59:27.350Z,99.99
2019-02-23T05:00:27.339Z,99.99
2019-02-23T05:01:27.351Z,99.99
2019-02-23T05:02:27.329Z,99.99
2019-02-23T05:03:27.305Z,99.99
2019-02-23T05:04:27.305Z,99.99
2019-02-23T05:05:27.290Z,99.99
2019-02-23T05:06:27.283Z,99.99
2019-02-23T05:07:27.270Z,99.99
2019-02-23T05:08:27.254Z,99.99
2019-02-23T05:09:27.249Z,99.99
2019-02-23T05:10:27.248Z,99.99
2019-02-23T05:11:27.230Z,99.99
2019-02-23T05:12:27.223Z,99.99
2019-02-23T05:13:27.212Z,99.99
2019-02-23T05:14:27.203Z,99.99
2019-02-23T05:15:27.195Z,99.99
2019-02-23T05:16:27.185Z,99.99
2019-02-23T05:17:27.173Z,99.99
2019-02-23T05:18:27.164Z,99.99
2019-02-23T05:19:27.156Z,99.99
2019-02-23T05:20:27.136Z,99.99
2019-02-23T05:21:27.175Z,99.99
2019-02-23T05:22:27.131Z,99.99
2019-02-23T05:23:27.121Z,99.99
2019-02-23T05:24:27.113Z,99.99
2019-02-23T05:25:27.094Z,99.99
2019-02-23T05:26:27.094Z,99.99
2019-02-23T05:27:27.077Z,99.99
2019-02-23T05:28:27.066Z,99.99
2019-02-23T05:29:27.057Z,99.99
2019-02-23T05:30:27.051Z,99.99
2019-02-23T05:31:27.034Z,99.99
2019-02-23T05:32:27.027Z,99.99
2019-02-23T05:33:27.021Z,99.99
2019-02-23T05:34:27.009Z,99.99
2019-02-23T05:35:27.002Z,99.99
2019-02-23T05:36:26.997Z,99.99
2019-02-23T05:37:26.975Z,99.99
2019-02-23T05:38:26.966Z,99.99
2019-02-23T05:39:26.961Z,99.99
2019-02-23T05:40:26.952Z,99.99
2019-02-23T05:41:26.943Z,99.99
2019-02-23T05:42:26.947Z,99.99
2019-02-23T05:43:26.921Z,99.99
2019-02-23T05:44:26.916Z,99.99
2019-02-23T05:45:26.909Z,99.99
2019-02-23T05:46:26.896Z,99.99
2019-02-23T05:47:26.885Z,99.99
2019-02-23T05:48:26.876Z,99.99
2019-02-23T05:49:26.865Z,99.99
2019-02-23T05:50:26.852Z,99.99
2019-02-23T05:51:38.113Z,99.99
2019-02-23T05:52:26.833Z,99.99
2019-02-23T05:53:26.829Z,99.99
2019-02-23T05:54:26.817Z,99.99
2019-02-23T05:55:26.810Z,99.99
2019-02-23T05:56:26.806Z,99.99
2019-02-23T05:57:26.796Z,99.99
2019-02-23T05:58:26.785Z,99.99
2019-02-23T05:59:26.775Z,99.99
2019-02-23T06:00:26.768Z,99.99
2019-02-23T06:01:26.753Z,99.99
2019-02-23T06:02:26.742Z,99.99
2019-02-23T06:03:26.732Z,99.99
2019-02-23T06:04:26.723Z,99.99
2019-02-23T06:05:26.715Z,99.99
2019-02-23T06:06:26.711Z,99.99
2019-02-23T06:07:26.698Z,99.99
2019-02-23T06:08:26.691Z,99.99
2019-02-23T06:09:26.682Z,99.99
2019-02-23T06:10:26.672Z,99.99
2019-02-23T06:11:26.655Z,99.99
2019-02-23T06:12:26.645Z,99.99
2019-02-23T06:13:26.639Z,99.99
2019-02-23T06:14:26.636Z,99.99
2019-02-23T06:15:26.618Z,99.99
2019-02-23T06:16:26.616Z,99.99
2019-02-23T06:17:26.612Z,99.99
2019-02-23T06:18:26.607Z,99.99
2019-02-23T06:19:26.583Z,99.99
2019-02-23T06:20:26.581Z,99.99
2019-02-23T06:21:26.562Z,99.99
2019-02-23T06:22:26.557Z,99.99
2019-02-23T06:23:26.542Z,99.99
2019-02-23T06:24:26.543Z,99.99
2019-02-23T06:25:26.526Z,99.99
2019-02-23T06:26:26.521Z,99.99
2019-02-23T06:27:26.507Z,99.99
2019-02-23T06:28:26.492Z,99.99
2019-02-23T06:29:26.484Z,99.99
2019-02-23T06:30:26.475Z,99.99
2019-02-23T06:31:26.473Z,99.99
2019-02-23T06:32:26.457Z,99.99
2019-02-23T06:33:26.452Z,99.99
2019-02-23T06:34:26.436Z,99.99
2019-02-23T06:35:26.428Z,99.99
2019-02-23T06:36:26.418Z,99.99
2019-02-23T06:37:26.411Z,99.99
2019-02-23T06:38:26.400Z,99.99
2019-02-23T06:39:26.389Z,99.99
2019-02-23T06:40:26.387Z,99.99
2019-02-23T06:41:26.371Z,99.99
2019-02-23T06:42:26.360Z,99.99
2019-02-23T06:43:26.350Z,99.99
2019-02-23T06:44:26.338Z,99.99
2019-02-23T06:45:26.335Z,99.99
2019-02-23T06:46:26.321Z,99.99
2019-02-23T06:47:26.310Z,99.99
2019-02-23T06:48:26.298Z,99.99
2019-02-23T06:49:26.290Z,99.99
2019-02-23T06:50:26.288Z,99.99
2019-02-23T06:51:26.271Z,99.99
2019-02-23T06:52:26.272Z,99.99
2019-02-23T06:53:26.247Z,99.99
2019-02-23T06:54:26.241Z,99.99
2019-02-23T06:55:26.230Z,99.99
2019-02-23T06:56:26.218Z,99.99
2019-02-23T06:57:26.220Z,99.99
2019-02-23T06:58:26.202Z,99.99
2019-02-23T06:59:26.194Z,99.99
2019-02-23T07:00:26.181Z,99.99
2019-02-23T07:01:26.169Z,99.99
2019-02-23T07:02:26.162Z,99.99
2019-02-23T07:03:26.166Z,99.99
2019-02-23T07:04:26.175Z,99.99
2019-02-23T07:05:26.132Z,99.99
2019-02-23T07:06:26.118Z,99.99
2019-02-23T07:07:26.110Z,99.99
2019-02-23T07:08:26.104Z,99.99
2019-02-23T07:09:26.093Z,99.99
2019-02-23T07:10:26.086Z,99.99
2019-02-23T07:11:26.073Z,99.99
2019-02-23T07:12:26.073Z,99.99
2019-02-23T07:13:26.052Z,99.99
2019-02-23T07:14:26.035Z,99.99
2019-02-23T07:15:26.033Z,99.99
2019-02-23T07:16:26.021Z,99.99
2019-02-23T07:17:26.021Z,99.99
2019-02-23T07:18:26.003Z,99.99
2019-02-23T07:19:25.992Z,99.99
2019-02-23T07:20:25.979Z,99.99
2019-02-23T07:21:25.974Z,99.99
2019-02-23T07:22:25.963Z,99.99
2019-02-23T07:23:25.954Z,99.99
2019-02-23T07:24:25.943Z,99.99
2019-02-23T07:25:25.930Z,99.99
2019-02-23T07:26:25.922Z,99.99
2019-02-23T07:27:25.910Z,99.99
2019-02-23T07:28:25.904Z,99.99
2019-02-23T07:29:25.903Z,99.99
2019-02-23T07:30:25.885Z,99.99
2019-02-23T07:31:25.877Z,99.99
2019-02-23T07:32:25.866Z,99.99
2019-02-23T07:33:32.734Z,99.99
2019-02-23T07:34:25.841Z,99.99
2019-02-23T07:35:25.834Z,99.99
2019-02-23T07:36:25.826Z,99.99
2019-02-23T07:37:25.813Z,99.99
2019-02-23T07:38:25.803Z,99.99
2019-02-23T07:39:25.793Z,99.99
2019-02-23T07:40:25.784Z,99.99
2019-02-23T07:41:25.785Z,99.99
2019-02-23T07:42:25.776Z,99.99
2019-02-23T07:43:25.764Z,99.99
2019-02-23T07:44:25.749Z,99.99
2019-02-23T07:45:25.733Z,99.99
2019-02-23T07:46:25.722Z,99.99
2019-02-23T07:47:25.715Z,99.99
2019-02-23T07:48:25.705Z,99.99
2019-02-23T07:49:25.704Z,99.99
2019-02-23T07:50:25.691Z,99.99
2019-02-23T07:51:25.681Z,99.99
2019-02-23T07:52:26.646Z,99.99
2019-02-23T07:53:25.654Z,99.99
2019-02-23T07:54:25.650Z,99.99
2019-02-23T07:55:25.639Z,99.99
2019-02-23T07:56:25.658Z,99.99
2019-02-23T07:57:25.616Z,99.99
2019-02-23T07:58:25.603Z,99.99
2019-02-23T07:59:25.599Z,99.99
2019-02-23T08:00:25.586Z,99.99
2019-02-23T08:01:25.588Z,99.99
2019-02-23T08:02:25.938Z,99.99
2019-02-23T08:03:25.562Z,99.99
2019-02-23T08:04:25.555Z,99.99
2019-02-23T08:05:25.539Z,99.99
2019-02-23T08:06:25.530Z,99.99
2019-02-23T08:07:25.523Z,99.99
2019-02-23T08:08:25.517Z,99.99
2019-02-23T08:09:25.502Z,99.99
2019-02-23T08:10:25.491Z,99.99
2019-02-23T08:11:25.483Z,99.97
2019-02-23T08:12:25.475Z,99.21
2019-02-23T08:13:25.472Z,99.50
2019-02-23T08:14:25.455Z,99.21
2019-02-23T08:15:25.445Z,99.99
2019-02-23T08:16:25.439Z,98.36
2019-02-23T08:17:25.426Z,97.78
2019-02-23T08:18:25.415Z,97.78
2019-02-23T08:19:25.411Z,97.97
2019-02-23T08:20:25.400Z,97.88
2019-02-23T08:21:25.390Z,97.03
2019-02-23T08:22:25.394Z,97.22
2019-02-23T08:23:25.361Z,97.03
2019-02-23T08:24:25.366Z,97.50
2019-02-23T08:25:25.355Z,97.12
2019-02-23T08:26:25.345Z,97.12
2019-02-23T08:27:25.335Z,96.93
2019-02-23T08:28:25.324Z,96.36
2019-02-23T08:29:25.314Z,96.17
2019-02-23T08:30:25.304Z,96.17
2019-02-23T08:31:25.299Z,95.98
2019-02-23T08:32:25.288Z,96.36
2019-02-23T08:33:25.281Z,95.89
2019-02-23T08:34:25.270Z,95.41
2019-02-23T08:35:25.261Z,95.79
2019-02-23T08:36:25.246Z,95.70
2019-02-23T08:37:25.248Z,95.03
2019-02-23T08:38:25.231Z,95.32
2019-02-23T08:39:25.236Z,94.74
2019-02-23T08:40:25.215Z,95.12
2019-02-23T08:41:25.205Z,94.84
2019-02-23T08:42:25.192Z,95.60
2019-02-23T08:43:25.196Z,94.84
2019-02-23T08:44:25.181Z,94.74
2019-02-23T08:45:25.168Z,95.32
2019-02-23T08:46:25.164Z,95.03
2019-02-23T08:47:25.154Z,95.03
2019-02-23T08:48:25.139Z,94.93
2019-02-23T08:49:25.130Z,94.93
2019-02-23T08:50:25.123Z,94.84
2019-02-23T08:51:25.110Z,93.79
2019-02-23T08:52:25.102Z,93.70
2019-02-23T08:53:25.112Z,94.18
2019-02-23T08:54:25.085Z,94.37
2019-02-23T08:55:25.082Z,94.46
2019-02-23T08:56:25.077Z,94.84
2019-02-23T08:57:25.059Z,94.37
2019-02-23T08:58:25.061Z,94.37
2019-02-23T08:59:25.042Z,94.46
2019-02-23T09:00:25.030Z,93.55
2019-02-23T09:01:25.022Z,94.42
2019-02-23T09:02:25.015Z,94.98
2019-02-23T09:03:25.000Z,93.08
2019-02-23T09:04:24.993Z,93.37
2019-02-23T09:05:24.987Z,92.99
2019-02-23T09:06:24.988Z,95.08
2019-02-23T09:07:25.047Z,95.84
2019-02-23T09:08:24.957Z,96.98
2019-02-23T09:09:24.946Z,94.60
2019-02-23T09:10:24.934Z,93.84
2019-02-23T09:11:24.931Z,93.65
2019-02-23T09:12:24.922Z,93.46
2019-02-23T09:13:24.902Z,92.70
2019-02-23T09:14:24.900Z,92.80
2019-02-23T09:15:24.908Z,92.99
2019-02-23T09:16:24.886Z,92.70
2019-02-23T09:17:24.883Z,91.85
2019-02-23T09:18:24.876Z,91.66
2019-02-23T09:19:24.864Z,91.85
2019-02-23T09:20:29.211Z,91.56
2019-02-23T09:21:24.837Z,91.28
2019-02-23T09:22:24.837Z,92.22
2019-02-23T09:23:24.819Z,93.55
2019-02-23T09:24:26.840Z,92.03
2019-02-23T09:25:35.551Z,91.47
2019-02-23T09:26:26.897Z,91.28
2019-02-23T09:27:24.781Z,90.52
2019-02-23T09:28:24.778Z,90.14
2019-02-23T09:29:24.771Z,90.61
2019-02-23T09:30:24.768Z,90.52
2019-02-23T09:31:24.761Z,89.18
2019-02-23T09:32:24.744Z,89.94
2019-02-23T09:33:24.731Z,91.18
2019-02-23T09:34:25.813Z,91.28
2019-02-23T09:35:24.715Z,90.52
2019-02-23T09:36:24.705Z,90.23
2019-02-23T09:37:24.695Z,90.80
2019-02-23T09:38:24.706Z,90.14
2019-02-23T09:39:24.680Z,89.37
2019-02-23T09:40:24.675Z,90.23
2019-02-23T09:41:24.653Z,89.85
2019-02-23T09:42:24.663Z,90.84
2019-02-23T09:43:24.646Z,90.66
2019-02-23T09:44:24.636Z,90.18
2019-02-23T09:45:24.625Z,90.18
2019-02-23T09:46:24.617Z,89.80
2019-02-23T09:47:24.637Z,88.56
2019-02-23T09:48:24.597Z,88.37
2019-02-23T09:49:24.590Z,88.66
2019-02-23T09:50:24.758Z,87.71
2019-02-23T09:51:24.590Z,88.75
2019-02-23T09:52:24.568Z,88.28
2019-02-23T09:53:24.555Z,87.80
2019-02-23T09:54:24.550Z,88.09
2019-02-23T09:55:24.542Z,88.09
2019-02-23T09:56:24.707Z,88.18
2019-02-23T09:57:25.009Z,88.09
2019-02-23T09:58:24.541Z,87.90
2019-02-23T09:59:25.246Z,88.28
2019-02-23T10:00:24.520Z,88.09
2019-02-23T10:01:24.529Z,88.66
2019-02-23T10:02:24.517Z,88.46
2019-02-23T10:03:24.468Z,88.75
2019-02-23T10:04:24.849Z,87.90
2019-02-23T10:05:24.475Z,88.85
2019-02-23T10:06:24.464Z,89.14
2019-02-23T10:07:24.460Z,88.46
2019-02-23T10:08:24.431Z,88.46
2019-02-23T10:09:24.581Z,87.71
2019-02-23T10:10:25.275Z,87.80
2019-02-23T10:11:25.180Z,87.61
2019-02-23T10:12:28.020Z,87.71
2019-02-23T10:13:24.386Z,86.94
2019-02-23T10:14:25.357Z,88.28
2019-02-23T10:15:24.431Z,88.09
2019-02-23T10:16:24.404Z,87.80
2019-02-23T10:17:25.954Z,87.42
2019-02-23T10:18:24.339Z,87.42
2019-02-23T10:19:24.335Z,87.23
2019-02-23T10:20:24.329Z,87.23
2019-02-23T10:21:24.389Z,87.61
2019-02-23T10:22:24.316Z,87.13
2019-02-23T10:23:24.301Z,86.80
2019-02-23T10:24:24.324Z,86.61
2019-02-23T10:25:25.497Z,86.51
2019-02-23T10:26:24.265Z,86.70
2019-02-23T10:27:24.898Z,86.80
2019-02-23T10:28:24.249Z,87.08
2019-02-23T10:29:25.415Z,86.61
2019-02-23T10:30:24.950Z,86.99
2019-02-23T10:31:24.228Z,86.61
2019-02-23T10:32:25.231Z,85.66
2019-02-23T10:33:24.216Z,85.37
2019-02-23T10:34:24.806Z,84.99
2019-02-23T10:35:25.485Z,84.99
2019-02-23T10:36:24.698Z,84.89
2019-02-23T10:37:24.192Z,84.23
2019-02-23T10:38:24.170Z,84.52
2019-02-23T10:39:24.161Z,84.99
2019-02-23T10:40:24.182Z,84.89
2019-02-23T10:41:24.169Z,84.42
2019-02-23T10:42:24.148Z,84.99
2019-02-23T10:43:24.136Z,86.22
2019-02-23T10:44:24.128Z,86.70
2019-02-23T10:45:24.114Z,86.13
2019-02-23T10:46:30.789Z,84.94
2019-02-23T10:47:24.101Z,84.23
2019-02-23T10:48:24.100Z,85.13
2019-02-23T10:49:24.073Z,85.51
2019-02-23T10:50:24.073Z,85.13
2019-02-23T10:51:24.067Z,85.03
2019-02-23T10:52:24.115Z,84.84
2019-02-23T10:53:32.567Z,85.89
2019-02-23T10:54:24.041Z,84.46
2019-02-23T10:55:24.039Z,84.46
2019-02-23T10:56:24.027Z,83.89
2019-02-23T10:57:24.021Z,83.61
2019-02-23T10:58:24.025Z,81.60
2019-02-23T10:59:24.001Z,82.93
2019-02-23T11:00:24.008Z,83.61
2019-02-23T11:01:23.982Z,84.46
2019-02-23T11:02:23.988Z,83.74
2019-02-23T11:03:23.968Z,82.60
2019-02-23T11:04:23.981Z,81.74
2019-02-23T11:05:23.965Z,80.98
2019-02-23T11:06:23.942Z,80.31
2019-02-23T11:07:23.937Z,79.93
2019-02-23T11:08:23.932Z,79.93
2019-02-23T11:09:23.922Z,79.27
2019-02-23T11:10:23.913Z,79.93
2019-02-23T11:11:23.915Z,79.93
2019-02-23T11:12:23.896Z,79.36
2019-02-23T11:13:23.891Z,78.98
2019-02-23T11:14:23.951Z,78.88
2019-02-23T11:15:23.876Z,78.69
2019-02-23T11:16:23.865Z,78.78
2019-02-23T11:17:23.856Z,78.59
2019-02-23T11:18:23.848Z,78.22
2019-02-23T11:19:23.847Z,77.83
2019-02-23T11:20:23.832Z,77.36
2019-02-23T11:21:23.823Z,77.07
2019-02-23T11:22:23.818Z,77.17
2019-02-23T11:23:23.814Z,76.88
2019-02-23T11:24:23.803Z,77.07
2019-02-23T11:25:23.806Z,77.36
2019-02-23T11:26:23.789Z,76.88
2019-02-23T11:27:23.782Z,77.26
2019-02-23T11:28:23.778Z,77.74
2019-02-23T11:29:23.764Z,77.07
2019-02-23T11:30:23.763Z,76.21
2019-02-23T11:31:23.751Z,75.84
2019-02-23T11:32:23.746Z,75.74
2019-02-23T11:33:24.305Z,75.45
2019-02-23T11:34:23.732Z,75.93
2019-02-23T11:35:23.720Z,75.64
2019-02-23T11:36:23.711Z,75.26
2019-02-23T11:37:24.304Z,75.16
2019-02-23T11:38:23.701Z,75.64
2019-02-23T11:39:23.686Z,75.59
2019-02-23T11:40:23.767Z,75.11
2019-02-23T11:41:23.676Z,74.73
2019-02-23T11:42:23.666Z,74.25
2019-02-23T11:43:23.662Z,74.06
2019-02-23T11:44:23.652Z,73.96
2019-02-23T11:45:23.650Z,74.35
2019-02-23T11:46:23.637Z,74.06
2019-02-23T11:47:23.633Z,72.92
2019-02-23T11:48:23.766Z,72.34
2019-02-23T11:49:23.619Z,72.06
2019-02-23T11:50:23.601Z,72.16
2019-02-23T11:51:24.319Z,73.49
2019-02-23T11:52:23.599Z,73.77
2019-02-23T11:53:23.581Z,73.39
2019-02-23T11:54:23.580Z,74.44
2019-02-23T11:55:23.572Z,73.49
2019-02-23T11:56:23.578Z,73.11
2019-02-23T11:57:23.562Z,72.34
2019-02-23T11:58:23.554Z,72.44
2019-02-23T11:59:23.547Z,72.92
2019-02-23T12:00:23.540Z,72.82
2019-02-23T12:01:23.531Z,71.48
2019-02-23T12:02:23.524Z,70.63
2019-02-23T12:03:23.519Z,71.39
2019-02-23T12:04:23.509Z,71.20
2019-02-23T12:05:23.509Z,71.01
2019-02-23T12:06:23.499Z,71.58
2019-02-23T12:07:23.488Z,71.96
2019-02-23T12:08:23.479Z,72.06
2019-02-23T12:09:23.479Z,71.58
2019-02-23T12:10:23.466Z,71.11
2019-02-23T12:11:23.475Z,71.77
2019-02-23T12:12:23.457Z,71.96
2019-02-23T12:13:23.443Z,72.34
2019-02-23T12:14:25.819Z,71.68
2019-02-23T12:15:23.430Z,71.30
2019-02-23T12:16:23.423Z,71.68
2019-02-23T12:17:23.420Z,71.87
2019-02-23T12:18:23.414Z,71.87
2019-02-23T12:19:23.407Z,71.43
2019-02-23T12:20:23.400Z,71.72
2019-02-23T12:21:23.385Z,70.57
2019-02-23T12:22:23.383Z,70.95
2019-02-23T12:23:23.380Z,70.38
2019-02-23T12:24:23.377Z,70.28
2019-02-23T12:25:23.372Z,70.38
2019-02-23T12:26:23.389Z,69.71
2019-02-23T12:27:23.355Z,68.85
2019-02-23T12:28:23.339Z,68.85
2019-02-23T12:29:23.344Z,68.47
2019-02-23T12:30:23.342Z,68.66
2019-02-23T12:31:23.332Z,68.85
2019-02-23T12:32:23.311Z,68.95
2019-02-23T12:33:23.312Z,68.28
2019-02-23T12:34:23.302Z,68.76
2019-02-23T12:35:23.302Z,68.18
2019-02-23T12:36:23.293Z,67.42
2019-02-23T12:37:23.281Z,67.61
2019-02-23T12:38:23.266Z,68.09
2019-02-23T12:39:23.265Z,67.52
2019-02-23T12:40:23.256Z,67.33
2019-02-23T12:41:23.251Z,67.23
2019-02-23T12:42:23.247Z,67.33
2019-02-23T12:43:23.248Z,67.33
2019-02-23T12:44:23.281Z,67.52
2019-02-23T12:45:23.278Z,67.55
2019-02-23T12:46:23.291Z,66.85
2019-02-23T12:47:23.292Z,66.56
2019-02-23T12:48:23.204Z,66.38
2019-02-23T12:49:23.200Z,66.22
2019-02-23T12:50:23.190Z,66.12
2019-02-23T12:51:23.195Z,66.60
2019-02-23T12:52:23.178Z,66.02